KFTY

Fulton County-Brown Field Airport

Atlanta, Georgia, USA
METAR KFTY 211453Z 33009KT 10SM CLR M03/M13 A3041 RMK AO2 SLP305 T10331133 52028
Observed Flight Rules
Jan-21 @ 14:53 UTC (an hour ago) Visual Flight Rules
Wind Visibility Clouds
330° at 9 knots 10 miles
  • Clear skies
Temperatures Readings
Current -3°C / 27°F
Dewpoint -13°C / 9°F
Humidity 46%
Altimeter 30.41" Hg
Pressure 1030.5 hPa
Elevation 263
METAR KFTY 211453Z 33009KT 10SM CLR M03/M13 A3041 RMK AO2 SLP305 T10331133 52028
Observed Flight Rules
Jan-21 @ 14:53 UTC
(an hour ago)
VFR
Wind Visibility
330° at 9 knots 10 miles
Clouds
  • Clear skies
Temperature Dewpoint
-3°C / 27°F -13°C / 9°F
Humidity Altimeter Pressure
46% 30.41" Hg 1030.5 hPa